Time;durP1;ratioP1;P1;durP2;ratioP2;P2;SDS_P1;SDS_P2;PMS_P1;PMS_P2;Temp;Humidity;BMP_temperature;BMP_pressure;BME280_temperature;BME280_humidity;BME280_pressure;Samples;Min_cycle;Max_cycle;Signal;HPM_P1;HPM_P2
2022/08/23 00:02:03;;;;;;;3.72;2.10;;;;;;;;;;5052846;28;20226;-83
2022/08/23 00:04:32;;;;;;;3.97;2.15;;;;;;;;;;5052966;28;20229;-85
2022/08/23 00:07:00;;;;;;;2.95;2.38;;;;;;;;;;5053145;28;20206;-85
2022/08/23 00:09:27;;;;;;;2.33;1.98;;;;;;;;;;5052605;28;20206;-86
2022/08/23 00:11:56;;;;;;;2.13;1.90;;;;;;;;;;5052740;28;20252;-85
2022/08/23 00:14:24;;;;;;;6.13;2.00;;;;;;;;;;5052757;28;20233;-86
2022/08/23 00:16:52;;;;;;;2.83;2.20;;;;;;;;;;5052172;28;20737;-85
2022/08/23 00:19:19;;;;;;;2.50;1.83;;;;;;;;;;5053419;28;20206;-86
2022/08/23 00:21:48;;;;;;;2.45;2.00;;;;;;;;;;5052102;28;20249;-85
2022/08/23 00:24:16;;;;;;;2.72;1.80;;;;;;;;;;5052563;28;20226;-85
2022/08/23 00:26:54;;;;;;;1.70;1.60;;;;;;;;;;5052156;28;20643;-85
2022/08/23 00:29:21;;;;;;;2.75;1.83;;;;;;;;;;5052892;28;20186;-86
2022/08/23 00:31:49;;;;;;;2.85;2.05;;;;;;;;;;5052063;28;20238;-85
2022/08/23 00:34:16;;;;;;;2.95;2.00;;;;;;;;;;5052633;28;20257;-86
2022/08/23 00:36:44;;;;;;;2.47;1.95;;;;;;;;;;5051955;28;20242;-85
2022/08/23 00:39:12;;;;;;;3.00;2.22;;;;;;;;;;5052509;28;20639;-86
2022/08/23 00:41:39;;;;;;;2.67;1.92;;;;;;;;;;5051886;28;20234;-86
2022/08/23 00:49:46;;;;;;;2.50;1.92;;;;;;;;;;5056347;28;20193;-84
2022/08/23 00:52:18;;;;;;;2.22;2.03;;;;;;;;;;5092840;28;20261;-85
2022/08/23 00:54:46;;;;;;;2.53;2.00;;;;;;;;;;5082028;28;20225;-85
2022/08/23 00:57:14;;;;;;;3.70;1.80;;;;;;;;;;5053017;28;20202;-86
2022/08/23 00:59:42;;;;;;;3.92;1.80;;;;;;;;;;5051931;28;20209;-86
2022/08/23 01:02:10;;;;;;;2.42;2.10;;;;;;;;;;5056559;28;20580;-86
2022/08/23 01:04:39;;;;;;;4.32;2.15;;;;;;;;;;5052840;28;20209;-86
2022/08/23 01:07:10;;;;;;;2.95;2.00;;;;;;;;;;5075717;28;20201;-85
2022/08/23 01:09:38;;;;;;;2.97;2.13;;;;;;;;;;5074892;28;20205;-85
2022/08/23 01:12:09;;;;;;;2.83;2.60;;;;;;;;;;5067899;28;20255;-85
2022/08/23 01:14:39;;;;;;;5.13;2.00;;;;;;;;;;5052499;28;20217;-85
2022/08/23 01:17:08;;;;;;;1.83;1.73;;;;;;;;;;5061028;28;20201;-86
2022/08/23 01:19:36;;;;;;;6.88;2.30;;;;;;;;;;5061904;28;20202;-84
2022/08/23 01:22:08;;;;;;;3.17;1.90;;;;;;;;;;5052479;28;20576;-85
2022/08/23 01:24:37;;;;;;;1.83;1.70;;;;;;;;;;5063321;28;20209;-85
2022/08/23 01:27:05;;;;;;;2.80;2.38;;;;;;;;;;5066369;28;20195;-85
2022/08/23 01:29:32;;;;;;;3.97;2.20;;;;;;;;;;5052164;28;20210;-85
2022/08/23 01:32:00;;;;;;;2.72;2.20;;;;;;;;;;5068460;28;20216;-85
2022/08/23 01:34:28;;;;;;;3.00;2.78;;;;;;;;;;5075834;28;20287;-85
2022/08/23 01:36:55;;;;;;;2.73;2.10;;;;;;;;;;5063341;28;20202;-86
2022/08/23 01:39:23;;;;;;;3.03;2.33;;;;;;;;;;5063718;28;20226;-86
2022/08/23 01:41:51;;;;;;;2.72;2.35;;;;;;;;;;5071228;28;20252;-84
2022/08/23 01:44:18;;;;;;;2.22;2.03;;;;;;;;;;5072425;28;20222;-85
2022/08/23 01:46:46;;;;;;;2.53;2.00;;;;;;;;;;5054873;28;20242;-86
2022/08/23 01:49:14;;;;;;;2.83;2.00;;;;;;;;;;5072406;28;20286;-85
2022/08/23 01:51:41;;;;;;;2.53;1.92;;;;;;;;;;5051001;28;20714;-86
2022/08/23 01:54:08;;;;;;;4.10;2.30;;;;;;;;;;5054219;28;20685;-84
2022/08/23 01:56:37;;;;;;;3.00;2.35;;;;;;;;;;5069079;28;20244;-85
2022/08/23 01:59:05;;;;;;;2.40;2.20;;;;;;;;;;5071117;28;20685;-85
2022/08/23 02:01:32;;;;;;;4.50;2.30;;;;;;;;;;5051187;28;20859;-85
2022/08/23 02:04:00;;;;;;;5.47;2.40;;;;;;;;;;5052092;28;20588;-86
2022/08/23 02:06:27;;;;;;;5.60;2.50;;;;;;;;;;5055568;28;20371;-86
2022/08/23 02:09:04;;;;;;;4.38;2.28;;;;;;;;;;5051834;28;20213;-85
2022/08/23 02:11:32;;;;;;;4.43;2.33;;;;;;;;;;5072064;28;20240;-85
2022/08/23 02:14:02;;;;;;;2.83;2.47;;;;;;;;;;5075084;28;20232;-85
2022/08/23 02:16:32;;;;;;;4.03;2.37;;;;;;;;;;5074933;28;20240;-84
2022/08/23 02:19:01;;;;;;;2.60;2.40;;;;;;;;;;5075063;28;20598;-85
2022/08/23 02:21:30;;;;;;;3.00;2.43;;;;;;;;;;5061435;28;20234;-85
2022/08/23 02:23:57;;;;;;;4.13;2.30;;;;;;;;;;5054977;28;20890;-86
2022/08/23 02:26:24;;;;;;;4.27;2.40;;;;;;;;;;5056732;28;20230;-86
2022/08/23 02:28:51;;;;;;;2.40;2.20;;;;;;;;;;5075418;28;20217;-84
2022/08/23 02:31:18;;;;;;;3.13;2.50;;;;;;;;;;5068463;28;20229;-85
2022/08/23 02:33:47;;;;;;;2.57;2.20;;;;;;;;;;5071629;28;20228;-85
2022/08/23 02:36:15;;;;;;;2.43;2.20;;;;;;;;;;5073744;28;20267;-85
2022/08/23 02:38:42;;;;;;;4.03;2.60;;;;;;;;;;5073989;28;20666;-85
2022/08/23 02:41:09;;;;;;;2.50;2.30;;;;;;;;;;5072297;28;20614;-85
2022/08/23 02:43:36;;;;;;;4.03;2.40;;;;;;;;;;5072270;28;20229;-85
2022/08/23 02:46:05;;;;;;;2.43;2.23;;;;;;;;;;5073425;28;20245;-85
2022/08/23 02:48:32;;;;;;;4.33;2.13;;;;;;;;;;5073262;28;20212;-84
2022/08/23 02:51:01;;;;;;;2.20;2.03;;;;;;;;;;5074095;28;20290;-85
2022/08/23 02:53:28;;;;;;;2.40;2.20;;;;;;;;;;5073184;28;20229;-84
2022/08/23 02:55:55;;;;;;;3.17;2.30;;;;;;;;;;5057722;28;20233;-85
2022/08/23 02:58:22;;;;;;;3.37;2.27;;;;;;;;;;5064391;28;20202;-86
2022/08/23 03:00:49;;;;;;;3.43;2.13;;;;;;;;;;5058890;28;20237;-85
2022/08/23 03:03:17;;;;;;;3.60;2.67;;;;;;;;;;5061353;28;20225;-85
2022/08/23 03:05:45;;;;;;;2.97;2.30;;;;;;;;;;5074208;28;20233;-84
2022/08/23 03:08:14;;;;;;;3.10;2.30;;;;;;;;;;5069131;28;20209;-85
2022/08/23 03:10:43;;;;;;;4.07;2.50;;;;;;;;;;5054196;28;20238;-85
2022/08/23 03:13:10;;;;;;;3.30;2.50;;;;;;;;;;5067451;28;20253;-85
2022/08/23 03:15:37;;;;;;;2.87;2.10;;;;;;;;;;5056496;28;20242;-85
2022/08/23 03:18:05;;;;;;;4.60;2.73;;;;;;;;;;5054844;28;20212;-85
2022/08/23 03:20:32;;;;;;;2.43;2.20;;;;;;;;;;5056632;28;20261;-84
2022/08/23 03:22:59;;;;;;;4.07;2.20;;;;;;;;;;5073841;28;20226;-84
2022/08/23 03:25:28;;;;;;;4.63;2.23;;;;;;;;;;5079633;22;20226;-83
2022/08/23 03:27:55;;;;;;;3.00;2.20;;;;;;;;;;5053680;28;20206;-83
2022/08/23 03:30:22;;;;;;;3.63;2.60;;;;;;;;;;5053055;28;20238;-83
2022/08/23 03:32:49;;;;;;;5.50;2.77;;;;;;;;;;5053653;28;20202;-85
2022/08/23 03:35:16;;;;;;;2.83;2.17;;;;;;;;;;5037074;28;20321;-83
2022/08/23 03:37:43;;;;;;;3.60;2.40;;;;;;;;;;5033528;28;20199;-83
2022/08/23 03:40:11;;;;;;;8.57;2.63;;;;;;;;;;5033073;28;20252;-85
2022/08/23 03:42:40;;;;;;;6.50;2.70;;;;;;;;;;5033482;28;20295;-83
2022/08/23 03:45:07;;;;;;;3.60;2.57;;;;;;;;;;5032764;28;20234;-83
2022/08/23 03:47:34;;;;;;;3.13;2.73;;;;;;;;;;5033394;28;20678;-83
2022/08/23 03:50:01;;;;;;;4.90;2.70;;;;;;;;;;5032859;28;20280;-84
2022/08/23 03:52:28;;;;;;;2.83;2.47;;;;;;;;;;5033013;28;20210;-84
2022/08/23 03:54:56;;;;;;;4.70;2.77;;;;;;;;;;5032567;28;20241;-83
2022/08/23 03:57:23;;;;;;;3.87;2.77;;;;;;;;;;5033086;28;20233;-83
2022/08/23 03:59:51;;;;;;;4.10;2.77;;;;;;;;;;5033039;28;20237;-84
2022/08/23 04:02:18;;;;;;;6.40;2.80;;;;;;;;;;5032928;28;20214;-84
2022/08/23 04:04:45;;;;;;;3.57;2.27;;;;;;;;;;5033033;28;20235;-84
2022/08/23 04:07:12;;;;;;;5.23;2.97;;;;;;;;;;5033125;28;20226;-84
2022/08/23 04:09:39;;;;;;;3.60;3.30;;;;;;;;;;5032379;28;20209;-84
2022/08/23 04:12:07;;;;;;;4.03;2.90;;;;;;;;;;5032644;28;20207;-84
2022/08/23 04:14:35;;;;;;;4.40;3.07;;;;;;;;;;5032374;28;20226;-85
2022/08/23 04:17:03;;;;;;;3.27;2.90;;;;;;;;;;5033045;28;20226;-85
2022/08/23 04:19:30;;;;;;;4.23;3.10;;;;;;;;;;5032341;28;20213;-85
2022/08/23 04:21:57;;;;;;;5.20;2.90;;;;;;;;;;5033481;28;20701;-85
2022/08/23 04:24:25;;;;;;;3.43;2.93;;;;;;;;;;5032751;28;20258;-85
2022/08/23 04:26:52;;;;;;;7.77;2.60;;;;;;;;;;5033565;28;20238;-84
2022/08/23 04:29:19;;;;;;;12.37;3.13;;;;;;;;;;5033834;28;20213;-85
2022/08/23 04:31:46;;;;;;;10.27;3.10;;;;;;;;;;5049316;28;20230;-85
2022/08/23 04:34:15;;;;;;;5.73;2.50;;;;;;;;;;5033645;28;20698;-85
2022/08/23 04:36:43;;;;;;;13.23;3.20;;;;;;;;;;5033940;28;20260;-83
2022/08/23 04:39:10;;;;;;;8.70;2.70;;;;;;;;;;5034206;28;20610;-87
2022/08/23 04:44:22;;;;;;;6.13;2.63;;;;;;;;;;5033211;28;20225;-86
2022/08/23 04:46:49;;;;;;;4.27;2.80;;;;;;;;;;5032657;28;20262;-86
2022/08/23 04:49:18;;;;;;;10.73;3.10;;;;;;;;;;5032935;28;20682;-87
2022/08/23 04:51:45;;;;;;;6.70;3.10;;;;;;;;;;5032514;28;20239;-86
2022/08/23 04:54:13;;;;;;;9.20;3.23;;;;;;;;;;5033027;28;20234;-87
2022/08/23 04:56:40;;;;;;;5.53;3.17;;;;;;;;;;5032340;28;20702;-87
2022/08/23 04:59:07;;;;;;;5.40;2.80;;;;;;;;;;5033026;28;20569;-87
2022/08/23 05:01:34;;;;;;;7.23;3.27;;;;;;;;;;5032029;28;20238;-87
2022/08/23 05:04:02;;;;;;;7.13;3.50;;;;;;;;;;5033405;28;20706;-88
2022/08/23 05:06:31;;;;;;;6.70;2.90;;;;;;;;;;5032332;28;20737;-87
2022/08/23 05:08:58;;;;;;;5.43;2.90;;;;;;;;;;5032994;28;20245;-87
2022/08/23 05:11:25;;;;;;;6.87;3.30;;;;;;;;;;5031602;28;20615;-83
2022/08/23 05:13:52;;;;;;;4.87;3.30;;;;;;;;;;5031006;28;20241;-83
2022/08/23 05:16:19;;;;;;;12.10;3.33;;;;;;;;;;5031960;28;20246;-83
2022/08/23 05:18:47;;;;;;;7.90;3.33;;;;;;;;;;5032551;28;20211;-83
2022/08/23 05:21:14;;;;;;;7.07;3.43;;;;;;;;;;5030464;28;20231;-83
2022/08/23 05:23:43;;;;;;;11.03;3.87;;;;;;;;;;5028351;28;20223;-83
2022/08/23 05:26:10;;;;;;;5.37;3.90;;;;;;;;;;5033403;28;20230;-81
2022/08/23 05:28:40;;;;;;;5.63;3.53;;;;;;;;;;5038051;28;20202;-80
2022/08/23 05:31:09;;;;;;;5.67;3.70;;;;;;;;;;5039892;28;20253;-81
2022/08/23 05:33:37;;;;;;;8.43;3.43;;;;;;;;;;5041447;28;20222;-80
2022/08/23 05:36:05;;;;;;;6.40;3.40;;;;;;;;;;5043225;28;20238;-81
2022/08/23 05:38:33;;;;;;;5.47;3.47;;;;;;;;;;5042506;28;20211;-82
2022/08/23 05:41:01;;;;;;;4.17;3.40;;;;;;;;;;5032834;28;20636;-83
2022/08/23 05:43:29;;;;;;;8.97;3.70;;;;;;;;;;5035348;28;20210;-81
2022/08/23 05:46:01;;;;;;;5.80;3.07;;;;;;;;;;5040289;28;20230;-80
2022/08/23 05:48:28;;;;;;;7.00;4.10;;;;;;;;;;5038791;28;20243;-80
2022/08/23 05:50:55;;;;;;;6.40;4.00;;;;;;;;;;5038129;28;20258;-80
2022/08/23 05:53:22;;;;;;;5.43;3.50;;;;;;;;;;5042203;28;20297;-80
2022/08/23 05:55:49;;;;;;;6.57;3.60;;;;;;;;;;5039252;28;20246;-79
2022/08/23 05:58:18;;;;;;;4.43;3.47;;;;;;;;;;5040080;28;20221;-80
2022/08/23 06:00:45;;;;;;;8.37;3.63;;;;;;;;;;5041227;28;20249;-80
2022/08/23 06:03:12;;;;;;;8.43;4.17;;;;;;;;;;5040623;28;20206;-80
2022/08/23 06:05:40;;;;;;;6.23;3.53;;;;;;;;;;5039528;28;20245;-80
2022/08/23 06:08:08;;;;;;;9.13;3.70;;;;;;;;;;5041409;28;20215;-81
2022/08/23 06:10:36;;;;;;;5.40;3.37;;;;;;;;;;5042666;28;20607;-82
2022/08/23 06:13:03;;;;;;;4.80;3.50;;;;;;;;;;5042402;28;20242;-84
2022/08/23 06:15:37;;;;;;;5.07;3.70;;;;;;;;;;5037170;28;20288;-80
2022/08/23 06:18:05;;;;;;;3.77;3.40;;;;;;;;;;5040179;28;20214;-80
2022/08/23 06:20:32;;;;;;;5.57;4.03;;;;;;;;;;5040496;28;20269;-82
2022/08/23 06:22:59;;;;;;;8.13;3.97;;;;;;;;;;5037763;28;20207;-80
2022/08/23 06:25:26;;;;;;;6.07;3.80;;;;;;;;;;5035376;28;20241;-82
2022/08/23 06:27:53;;;;;;;5.27;3.73;;;;;;;;;;5036172;28;20201;-82
2022/08/23 06:30:20;;;;;;;11.33;5.07;;;;;;;;;;5036018;28;20231;-81
2022/08/23 06:32:48;;;;;;;6.57;3.60;;;;;;;;;;5040772;28;20207;-81
2022/08/23 06:35:15;;;;;;;7.47;3.50;;;;;;;;;;5039383;28;20352;-82
2022/08/23 06:37:42;;;;;;;5.97;3.70;;;;;;;;;;5037886;28;20210;-81
2022/08/23 06:40:10;;;;;;;6.80;3.83;;;;;;;;;;5036975;28;20741;-81
2022/08/23 06:42:37;;;;;;;8.33;3.57;;;;;;;;;;5038341;28;20206;-82
2022/08/23 06:45:05;;;;;;;7.23;4.00;;;;;;;;;;5035368;28;20231;-82
2022/08/23 06:47:32;;;;;;;11.53;3.63;;;;;;;;;;5037989;28;20207;-82
2022/08/23 06:50:00;;;;;;;8.23;4.10;;;;;;;;;;5031924;28;20231;-82
2022/08/23 06:52:27;;;;;;;5.23;3.30;;;;;;;;;;5036309;28;20256;-82
2022/08/23 06:54:55;;;;;;;7.80;2.90;;;;;;;;;;5052699;28;20321;-82
2022/08/23 06:57:22;;;;;;;3.83;2.70;;;;;;;;;;5053842;28;20202;-82
2022/08/23 06:59:49;;;;;;;3.07;2.87;;;;;;;;;;5054906;28;20234;-83
2022/08/23 07:02:16;;;;;;;5.23;3.00;;;;;;;;;;5054415;28;20279;-82
2022/08/23 07:04:43;;;;;;;5.23;2.83;;;;;;;;;;5056473;28;20867;-82
2022/08/23 07:07:12;;;;;;;9.63;2.40;;;;;;;;;;5056669;28;20206;-83
2022/08/23 07:09:39;;;;;;;3.83;2.37;;;;;;;;;;5038540;28;20202;-83
2022/08/23 07:12:07;;;;;;;3.47;2.10;;;;;;;;;;5034971;28;20203;-82
2022/08/23 07:14:34;;;;;;;3.25;2.30;;;;;;;;;;5035085;28;20226;-83
2022/08/23 07:17:02;;;;;;;4.60;2.50;;;;;;;;;;5034807;28;20211;-82
2022/08/23 07:19:31;;;;;;;2.22;2.03;;;;;;;;;;5033659;28;20234;-83
2022/08/23 07:21:59;;;;;;;4.68;3.08;;;;;;;;;;5035657;28;20214;-83
2022/08/23 07:24:28;;;;;;;4.78;2.70;;;;;;;;;;5034739;28;20328;-83
2022/08/23 07:26:55;;;;;;;2.95;2.22;;;;;;;;;;5034661;28;20203;-82
2022/08/23 07:29:23;;;;;;;2.15;1.83;;;;;;;;;;5034250;28;20207;-83
2022/08/23 07:31:51;;;;;;;2.40;1.90;;;;;;;;;;5033883;28;20230;-82
2022/08/23 07:34:19;;;;;;;3.60;1.83;;;;;;;;;;5034205;28;20231;-83
2022/08/23 07:36:46;;;;;;;2.53;2.00;;;;;;;;;;5044663;28;20274;-83
2022/08/23 07:39:14;;;;;;;2.28;1.70;;;;;;;;;;5035259;28;20214;-83
2022/08/23 07:41:43;;;;;;;1.95;1.70;;;;;;;;;;5034614;28;20249;-83
2022/08/23 07:44:11;;;;;;;5.15;2.13;;;;;;;;;;5033800;28;20229;-84
2022/08/23 07:46:39;;;;;;;1.95;1.65;;;;;;;;;;5033923;28;20242;-83
2022/08/23 07:49:07;;;;;;;3.50;1.65;;;;;;;;;;5035467;28;20217;-84
2022/08/23 07:51:35;;;;;;;3.63;1.80;;;;;;;;;;5042175;28;20290;-84
2022/08/23 07:54:03;;;;;;;4.68;2.05;;;;;;;;;;5035674;28;20238;-84
2022/08/23 07:56:30;;;;;;;2.35;1.90;;;;;;;;;;5033445;28;20246;-84
2022/08/23 07:59:00;;;;;;;3.95;1.70;;;;;;;;;;5033904;28;20210;-84
2022/08/23 08:01:27;;;;;;;3.63;1.98;;;;;;;;;;5043394;28;20237;-84
2022/08/23 08:03:56;;;;;;;2.65;1.80;;;;;;;;;;5033223;28;20225;-85
2022/08/23 08:06:24;;;;;;;3.00;2.00;;;;;;;;;;5034440;28;20233;-85
2022/08/23 08:08:51;;;;;;;1.77;1.60;;;;;;;;;;5051961;28;20213;-85
2022/08/23 08:11:20;;;;;;;2.20;1.77;;;;;;;;;;5052324;28;20241;-84
2022/08/23 08:13:47;;;;;;;2.58;1.65;;;;;;;;;;5053304;28;20230;-84
2022/08/23 08:16:22;;;;;;;2.05;1.63;;;;;;;;;;5052363;28;20729;-84
2022/08/23 08:18:49;;;;;;;2.22;1.67;;;;;;;;;;5053928;28;20190;-83
2022/08/23 08:21:17;;;;;;;2.00;1.52;;;;;;;;;;5052060;28;20264;-83
2022/08/23 08:23:44;;;;;;;2.63;1.80;;;;;;;;;;5052812;28;20238;-83
2022/08/23 08:26:11;;;;;;;2.75;1.77;;;;;;;;;;5052254;28;20242;-83
2022/08/23 08:28:39;;;;;;;2.03;1.83;;;;;;;;;;5053181;28;20217;-84
2022/08/23 08:31:06;;;;;;;3.80;1.83;;;;;;;;;;5051673;28;20291;-84
2022/08/23 08:33:35;;;;;;;2.00;1.50;;;;;;;;;;5052532;28;20202;-84
2022/08/23 08:36:02;;;;;;;2.88;1.60;;;;;;;;;;5060276;28;20237;-83
2022/08/23 08:38:29;;;;;;;3.75;1.77;;;;;;;;;;5058256;28;20232;-83
2022/08/23 08:41:01;;;;;;;2.95;1.50;;;;;;;;;;5056546;28;20233;-84
2022/08/23 08:43:31;;;;;;;1.95;1.75;;;;;;;;;;5059658;28;20246;-83
2022/08/23 08:46:03;;;;;;;2.88;1.73;;;;;;;;;;5044544;28;20633;-82
2022/08/23 08:48:32;;;;;;;4.90;2.03;;;;;;;;;;5037976;28;20191;-83
2022/08/23 08:51:04;;;;;;;2.90;1.63;;;;;;;;;;5039779;28;20239;-81
2022/08/23 08:53:35;;;;;;;3.20;1.77;;;;;;;;;;5039970;28;20581;-82
2022/08/23 08:56:03;;;;;;;1.85;1.70;;;;;;;;;;5042071;28;20245;-83
2022/08/23 08:58:34;;;;;;;2.47;2.05;;;;;;;;;;5040360;28;20218;-82
2022/08/23 09:01:01;;;;;;;2.55;1.70;;;;;;;;;;5034491;28;20234;-83
2022/08/23 09:03:31;;;;;;;2.63;2.00;;;;;;;;;;5041550;28;20206;-84
2022/08/23 09:06:00;;;;;;;2.75;1.90;;;;;;;;;;5058297;28;20229;-82
2022/08/23 09:08:37;;;;;;;2.55;1.70;;;;;;;;;;5057602;28;20210;-83
2022/08/23 09:11:06;;;;;;;4.80;1.73;;;;;;;;;;5019388;28;20249;-83
2022/08/23 09:13:40;;;;;;;3.35;2.03;;;;;;;;;;5052854;28;20200;-84
2022/08/23 09:16:14;;;;;;;4.10;1.77;;;;;;;;;;5053311;28;20359;-83
2022/08/23 09:18:41;;;;;;;2.58;1.83;;;;;;;;;;5057974;28;20205;-84
2022/08/23 09:21:09;;;;;;;2.50;1.77;;;;;;;;;;5045515;28;20261;-83
2022/08/23 09:23:39;;;;;;;4.13;2.00;;;;;;;;;;5041451;28;20217;-83
2022/08/23 09:26:16;;;;;;;3.17;1.90;;;;;;;;;;5067281;23;20264;-89
2022/08/23 09:28:45;;;;;;;3.05;2.05;;;;;;;;;;5057732;28;20201;-89
2022/08/23 09:31:12;;;;;;;2.15;1.80;;;;;;;;;;5056396;28;20261;-88
2022/08/23 09:33:41;;;;;;;2.30;1.90;;;;;;;;;;5056404;28;20301;-92
2022/08/23 09:36:15;;;;;;;2.40;1.90;;;;;;;;;;5055946;28;20244;-89
2022/08/23 09:38:52;;;;;;;1.98;1.83;;;;;;;;;;5056691;28;20194;-88
2022/08/23 09:41:22;;;;;;;2.85;1.83;;;;;;;;;;5056298;28;20228;-88
2022/08/23 09:43:51;;;;;;;2.10;1.85;;;;;;;;;;5056204;28;20201;-89
2022/08/23 09:46:25;;;;;;;2.72;1.90;;;;;;;;;;5056210;28;20234;-91
2022/08/23 09:48:57;;;;;;;6.65;2.20;;;;;;;;;;5057955;28;20637;-89
2022/08/23 09:51:27;;;;;;;4.20;1.85;;;;;;;;;;5056776;28;20234;-89
2022/08/23 09:54:05;;;;;;;3.10;2.35;;;;;;;;;;5056445;28;20202;-89
2022/08/23 09:56:34;;;;;;;3.88;1.80;;;;;;;;;;5054963;28;20265;-90
2022/08/23 09:59:02;;;;;;;3.33;1.90;;;;;;;;;;5056806;28;20237;-89
2022/08/23 10:01:32;;;;;;;2.55;2.10;;;;;;;;;;5056230;28;20237;-90
2022/08/23 10:04:11;;;;;;;2.58;2.20;;;;;;;;;;5057230;28;20661;-90
2022/08/23 10:06:40;;;;;;;2.45;1.80;;;;;;;;;;5056209;28;20653;-89
2022/08/23 10:09:09;;;;;;;2.45;1.73;;;;;;;;;;5056812;28;20572;-90
2022/08/23 10:11:38;;;;;;;2.00;1.80;;;;;;;;;;5055220;28;20238;-89
2022/08/23 10:14:05;;;;;;;3.40;2.30;;;;;;;;;;5056557;28;20302;-92
2022/08/23 10:16:37;;;;;;;4.13;2.08;;;;;;;;;;5056994;28;20240;-89
2022/08/23 10:19:12;;;;;;;2.40;2.17;;;;;;;;;;5056738;28;20206;-90
2022/08/23 10:21:41;;;;;;;2.10;1.80;;;;;;;;;;5061031;28;20257;-88
2022/08/23 10:24:21;;;;;;;2.38;2.08;;;;;;;;;;5055480;28;20201;-89
2022/08/23 10:26:55;;;;;;;5.60;2.10;;;;;;;;;;5065874;28;20221;-88
2022/08/23 10:29:36;;;;;;;4.90;2.15;;;;;;;;;;5057771;28;20209;-89
2022/08/23 10:32:06;;;;;;;2.35;1.90;;;;;;;;;;5055637;28;20769;-88
2022/08/23 10:34:49;;;;;;;1.85;1.60;;;;;;;;;;5056930;28;20226;-91
2022/08/23 10:37:24;;;;;;;3.65;1.90;;;;;;;;;;5075754;28;20227;-89
2022/08/23 10:39:58;;;;;;;1.50;1.40;;;;;;;;;;5075033;28;20240;-89
2022/08/23 10:42:30;;;;;;;2.05;1.63;;;;;;;;;;5074979;28;20574;-88
2022/08/23 10:45:02;;;;;;;3.65;1.83;;;;;;;;;;5074196;28;20237;-88
2022/08/23 10:47:36;;;;;;;2.38;2.08;;;;;;;;;;5074875;28;20680;-89
2022/08/23 10:50:05;;;;;;;2.30;2.05;;;;;;;;;;5075241;28;20568;-89
2022/08/23 10:52:34;;;;;;;3.55;1.92;;;;;;;;;;5075870;28;20213;-90
2022/08/23 10:55:15;;;;;;;3.03;1.85;;;;;;;;;;5074745;28;20236;-88
2022/08/23 10:57:44;;;;;;;2.17;1.70;;;;;;;;;;5075122;28;20266;-89
2022/08/23 11:00:13;;;;;;;2.03;1.45;;;;;;;;;;5073566;28;20240;-88
2022/08/23 11:02:44;;;;;;;2.17;1.50;;;;;;;;;;5075141;28;20204;-91
2022/08/23 11:05:18;;;;;;;4.82;1.75;;;;;;;;;;5074439;28;20236;-89
2022/08/23 11:07:56;;;;;;;3.80;1.67;;;;;;;;;;5075309;28;20185;-89
2022/08/23 11:10:30;;;;;;;2.78;1.83;;;;;;;;;;5094795;28;20238;-91
2022/08/23 11:12:58;;;;;;;3.05;1.70;;;;;;;;;;5095383;28;20207;-90
2022/08/23 11:15:33;;;;;;;3.70;1.80;;;;;;;;;;5095327;28;20691;-90
2022/08/23 11:18:03;;;;;;;3.00;1.73;;;;;;;;;;5094772;28;20230;-89
2022/08/23 11:20:50;;;;;;;1.60;1.50;;;;;;;;;;5093727;28;20246;-89
2022/08/23 11:23:18;;;;;;;4.25;1.90;;;;;;;;;;5094300;28;20666;-90
2022/08/23 11:25:47;;;;;;;2.13;1.52;;;;;;;;;;5094493;28;20235;-89
2022/08/23 11:28:35;;;;;;;2.13;1.75;;;;;;;;;;5096333;28;20276;-89
2022/08/23 11:31:19;;;;;;;4.57;1.90;;;;;;;;;;5095454;28;20239;-89
2022/08/23 11:33:48;;;;;;;2.45;1.73;;;;;;;;;;5094628;28;20208;-88
2022/08/23 11:36:20;;;;;;;2.53;2.00;;;;;;;;;;5093291;28;20238;-90
2022/08/23 11:39:07;;;;;;;2.40;2.10;;;;;;;;;;5094285;28;20249;-91
2022/08/23 11:41:37;;;;;;;2.40;1.98;;;;;;;;;;5099379;28;20568;-90
2022/08/23 11:44:19;;;;;;;2.13;1.92;;;;;;;;;;5092840;28;20212;-89
2022/08/23 11:46:58;;;;;;;5.32;1.70;;;;;;;;;;5093116;28;20258;-90
2022/08/23 11:49:43;;;;;;;2.35;1.70;;;;;;;;;;5092787;28;20632;-90
2022/08/23 11:52:19;;;;;;;2.97;1.73;;;;;;;;;;5093332;28;20200;-91
2022/08/23 11:55:01;;;;;;;2.28;2.03;;;;;;;;;;5093259;28;20241;-89
2022/08/23 11:57:35;;;;;;;2.20;2.00;;;;;;;;;;5093751;28;20216;-89
2022/08/23 12:00:20;;;;;;;2.10;1.90;;;;;;;;;;5092865;28;20247;-89
2022/08/23 12:03:00;;;;;;;2.75;1.92;;;;;;;;;;5093823;28;20250;-89
2022/08/23 12:05:41;;;;;;;2.47;1.95;;;;;;;;;;5093102;28;20703;-89
2022/08/23 12:08:30;;;;;;;3.65;1.88;;;;;;;;;;5093402;28;20299;-91
2022/08/23 12:11:00;;;;;;;2.00;1.70;;;;;;;;;;5093302;28;20235;-91
2022/08/23 12:13:33;;;;;;;2.53;1.90;;;;;;;;;;5093051;28;20207;-90
2022/08/23 12:16:08;;;;;;;4.68;2.00;;;;;;;;;;5093193;28;20242;-91
2022/08/23 15:25:39;;;;;;;4.38;2.08;;;;;;;;;;5080854;22;1200767;-87
2022/08/23 15:28:07;;;;;;;4.43;2.30;;;;;;;;;;5092820;28;20204;-86
2022/08/23 15:30:34;;;;;;;2.58;1.90;;;;;;;;;;5099148;28;20228;-86
2022/08/23 15:33:01;;;;;;;2.28;2.05;;;;;;;;;;5092134;28;20211;-86
2022/08/23 15:35:30;;;;;;;2.45;1.92;;;;;;;;;;5091677;28;20236;-86
2022/08/23 15:37:57;;;;;;;1.90;1.70;;;;;;;;;;5092269;28;20228;-86
2022/08/23 15:40:25;;;;;;;3.53;1.63;;;;;;;;;;5079669;28;20236;-86
2022/08/23 15:42:53;;;;;;;2.35;2.05;;;;;;;;;;5073434;28;20560;-87
2022/08/23 15:45:20;;;;;;;1.95;1.75;;;;;;;;;;5091638;28;20228;-86
2022/08/23 15:47:48;;;;;;;1.77;1.67;;;;;;;;;;5092558;28;20220;-86
2022/08/23 15:50:17;;;;;;;2.28;2.08;;;;;;;;;;5075735;28;20294;-88
2022/08/23 15:52:44;;;;;;;2.15;1.95;;;;;;;;;;5072221;28;20201;-87
2022/08/23 15:55:11;;;;;;;2.67;1.90;;;;;;;;;;5091848;28;20228;-85
2022/08/23 15:57:40;;;;;;;3.17;1.80;;;;;;;;;;5087484;28;20228;-86
2022/08/23 16:00:10;;;;;;;3.78;1.98;;;;;;;;;;5082462;28;20229;-86
2022/08/23 16:02:37;;;;;;;4.57;1.90;;;;;;;;;;5074220;28;20201;-84
2022/08/23 16:05:04;;;;;;;3.30;2.00;;;;;;;;;;5071042;28;20294;-86
2022/08/23 16:07:31;;;;;;;2.03;1.70;;;;;;;;;;5071651;28;20205;-86
2022/08/23 16:09:59;;;;;;;5.45;1.98;;;;;;;;;;5071616;28;20225;-86
2022/08/23 16:12:26;;;;;;;3.33;1.73;;;;;;;;;;5071611;28;20232;-86
2022/08/23 16:14:53;;;;;;;5.28;2.00;;;;;;;;;;5071835;28;20240;-87
2022/08/23 16:17:22;;;;;;;2.17;1.98;;;;;;;;;;5071945;28;20586;-87
2022/08/23 16:19:49;;;;;;;5.30;1.80;;;;;;;;;;5087357;28;20228;-87
2022/08/23 16:22:16;;;;;;;2.17;1.60;;;;;;;;;;5092271;28;20214;-86
2022/08/23 16:24:43;;;;;;;4.85;1.90;;;;;;;;;;5091779;28;20220;-87
2022/08/23 16:27:10;;;;;;;3.63;2.30;;;;;;;;;;5092349;28;20227;-87
2022/08/23 16:29:39;;;;;;;2.28;2.05;;;;;;;;;;5091949;28;20204;-86
2022/08/23 16:32:06;;;;;;;2.33;2.00;;;;;;;;;;5092443;28;20562;-87
2022/08/23 16:34:35;;;;;;;3.22;2.05;;;;;;;;;;5073779;28;20205;-84
2022/08/23 16:37:03;;;;;;;2.30;1.85;;;;;;;;;;5072252;28;20197;-86
2022/08/23 16:39:31;;;;;;;2.55;2.20;;;;;;;;;;5071290;28;20227;-88
2022/08/23 16:42:00;;;;;;;2.47;1.63;;;;;;;;;;5072302;28;20205;-87
2022/08/23 16:44:27;;;;;;;2.95;1.80;;;;;;;;;;5074378;28;20202;-86
2022/08/23 16:46:54;;;;;;;4.75;2.00;;;;;;;;;;5078309;28;20251;-85
2022/08/23 16:49:21;;;;;;;3.47;1.90;;;;;;;;;;5075526;28;20197;-89
2022/08/23 16:51:51;;;;;;;5.35;2.30;;;;;;;;;;5071128;28;20728;-85
2022/08/23 16:54:18;;;;;;;3.08;2.03;;;;;;;;;;5079948;28;20205;-87
2022/08/23 16:56:45;;;;;;;4.25;2.20;;;;;;;;;;5073697;28;20716;-88
2022/08/23 16:59:13;;;;;;;2.63;1.85;;;;;;;;;;5073011;28;20707;-87
2022/08/23 17:01:44;;;;;;;2.60;1.98;;;;;;;;;;5072315;28;20381;-87
2022/08/23 17:04:12;;;;;;;2.45;2.03;;;;;;;;;;5073235;28;20204;-87
2022/08/23 17:06:39;;;;;;;4.47;2.17;;;;;;;;;;5075704;28;20252;-87
2022/08/23 17:09:07;;;;;;;2.65;2.45;;;;;;;;;;5075756;28;20267;-87
2022/08/23 17:11:35;;;;;;;3.60;2.60;;;;;;;;;;5075084;28;20236;-87
2022/08/23 17:14:03;;;;;;;2.45;2.00;;;;;;;;;;5075602;28;20247;-88
2022/08/23 17:16:30;;;;;;;4.10;2.38;;;;;;;;;;5074902;28;20237;-86
2022/08/23 17:18:57;;;;;;;2.83;2.25;;;;;;;;;;5075357;28;20225;-87
2022/08/23 17:21:24;;;;;;;7.10;2.20;;;;;;;;;;5074612;28;20232;-87
2022/08/23 17:23:51;;;;;;;3.92;2.20;;;;;;;;;;5075715;28;20204;-86
2022/08/23 17:26:20;;;;;;;2.67;2.15;;;;;;;;;;5074188;28;20236;-86
2022/08/23 17:28:47;;;;;;;2.65;2.05;;;;;;;;;;5075281;28;20196;-87
2022/08/23 17:31:16;;;;;;;2.63;2.15;;;;;;;;;;5074235;28;20241;-86
2022/08/23 17:33:43;;;;;;;7.80;2.40;;;;;;;;;;5074754;28;20186;-86
2022/08/23 17:36:21;;;;;;;4.20;1.90;;;;;;;;;;5074132;28;20244;-87
2022/08/23 17:38:48;;;;;;;3.83;2.03;;;;;;;;;;5075011;28;20216;-86
2022/08/23 17:41:16;;;;;;;2.40;2.05;;;;;;;;;;5075466;28;20244;-86
2022/08/23 17:43:44;;;;;;;4.07;2.20;;;;;;;;;;5077543;28;20211;-86
2022/08/23 17:46:11;;;;;;;4.13;2.85;;;;;;;;;;5074925;28;20731;-86
2022/08/23 17:48:38;;;;;;;3.45;2.53;;;;;;;;;;5070236;28;20293;-86
2022/08/23 17:51:05;;;;;;;4.40;2.38;;;;;;;;;;5074200;28;20237;-86
2022/08/23 17:53:32;;;;;;;4.60;2.53;;;;;;;;;;5074960;28;20197;-85
2022/08/23 17:56:00;;;;;;;3.63;2.22;;;;;;;;;;5074168;28;20264;-85
2022/08/23 17:58:27;;;;;;;4.35;2.50;;;;;;;;;;5073887;28;20221;-86
2022/08/23 18:00:56;;;;;;;3.03;2.40;;;;;;;;;;5072830;28;20233;-84
2022/08/23 18:03:23;;;;;;;4.47;2.55;;;;;;;;;;5071751;28;20552;-86
2022/08/23 18:05:51;;;;;;;8.30;2.30;;;;;;;;;;5068343;28;20233;-86
2022/08/23 18:08:18;;;;;;;4.50;2.00;;;;;;;;;;5066826;28;20565;-86
2022/08/23 18:10:45;;;;;;;3.90;2.50;;;;;;;;;;5074008;28;20613;-86